createdAt,value
2019-01-17T00:01:23.496Z,99486.65
2019-01-17T00:04:11.982Z,99480.23
2019-01-17T00:07:00.698Z,99492.84
2019-01-17T00:12:44.501Z,99485.19
2019-01-17T00:18:14.165Z,99482.98
2019-01-17T00:21:02.643Z,99488.32
2019-01-17T00:23:51.107Z,99499.14
2019-01-17T00:29:18.872Z,99485.91
2019-01-17T00:32:07.348Z,99501.43
2019-01-17T00:34:55.825Z,99480.42
2019-01-17T00:37:44.300Z,99471.45
2019-01-17T00:43:28.361Z,99473.98
2019-01-17T00:49:25.923Z,99472.31
2019-01-17T00:52:14.657Z,99469.52
2019-01-17T00:57:58.663Z,99460.28
2019-01-17T01:00:47.111Z,99472.67
2019-01-17T01:06:16.048Z,99462.50
2019-01-17T01:09:04.509Z,99457.53
2019-01-17T01:11:52.987Z,99467.72
2019-01-17T01:14:41.450Z,99461.41
2019-01-17T01:17:30.181Z,99468.83
2019-01-17T01:20:18.678Z,99464.91
2019-01-17T01:23:07.153Z,99458.13
2019-01-17T01:28:36.457Z,99474.16
2019-01-17T01:31:24.938Z,99475.11
2019-01-17T01:34:13.400Z,99476.32
2019-01-17T01:39:42.412Z,99477.64
2019-01-17T01:42:31.131Z,99476.44
2019-01-17T01:45:19.599Z,99473.66
2019-01-17T01:48:08.084Z,99479.45
2019-01-17T01:56:21.769Z,99500.92
2019-01-17T01:58:51.123Z,99493.41
2019-01-17T02:01:20.448Z,99501.05
2019-01-17T02:03:49.794Z,99498.97
2019-01-17T02:06:19.132Z,99521.07
2019-01-17T02:11:42.470Z,99520.33
2019-01-17T02:17:05.786Z,99517.51
2019-01-17T02:19:35.132Z,99519.56
2019-01-17T02:22:35.523Z,99523.94
2019-01-17T02:28:06.881Z,99530.02
2019-01-17T02:30:36.226Z,99523.34
2019-01-17T02:33:05.561Z,99538.77
2019-01-17T02:35:35.131Z,99528.18
2019-01-17T02:38:04.460Z,99529.05
2019-01-17T02:40:33.802Z,99532.31
2019-01-17T02:43:03.399Z,99531.20
2019-01-17T02:45:32.742Z,99540.91
2019-01-17T02:48:02.084Z,99526.11
2019-01-17T02:50:31.410Z,99535.08
2019-01-17T02:53:00.918Z,99527.91
2019-01-17T02:55:30.232Z,99526.27
2019-01-17T02:57:59.559Z,99536.45
2019-01-17T03:03:09.522Z,99528.04
2019-01-17T03:05:38.857Z,99537.13
2019-01-17T03:08:08.173Z,99532.51
2019-01-17T03:10:48.918Z,99529.59
2019-01-17T03:13:18.482Z,99535.73
2019-01-17T03:15:48.081Z,99541.19
2019-01-17T03:18:17.399Z,99539.98
2019-01-17T03:20:46.739Z,99535.48
2019-01-17T03:23:16.050Z,99525.77
2019-01-17T03:25:45.639Z,99524.56
2019-01-17T03:31:29.343Z,99530.98
2019-01-17T03:33:58.653Z,99526.95
2019-01-17T03:36:28.006Z,99535.16
2019-01-17T03:38:57.314Z,99537.82
2019-01-17T03:41:26.657Z,99542.91
2019-01-17T03:43:55.982Z,99539.16
2019-01-17T03:46:26.936Z,99537.20
2019-01-17T03:48:56.256Z,99536.98
2019-01-17T03:51:25.590Z,99536.15
2019-01-17T03:53:54.914Z,99528.98
2019-01-17T03:56:24.245Z,99534.81
2019-01-17T03:58:53.823Z,99536.61
2019-01-17T04:01:23.157Z,99539.66
2019-01-17T04:03:52.470Z,99549.83
2019-01-17T04:06:21.811Z,99557.11
2019-01-17T04:08:51.432Z,99550.82
2019-01-17T04:11:20.752Z,99547.44
2019-01-17T04:13:50.095Z,99550.57
2019-01-17T04:16:19.650Z,99541.73
2019-01-17T04:18:48.984Z,99546.69
2019-01-17T04:21:19.916Z,99555.44
2019-01-17T04:23:49.590Z,99559.31
2019-01-17T04:26:18.912Z,99557.16
2019-01-17T04:28:48.310Z,99547.82
2019-01-17T04:31:17.634Z,99544.78
2019-01-17T04:33:46.959Z,99548.78
2019-01-17T04:36:16.613Z,99545.86
2019-01-17T04:38:45.929Z,99536.16
2019-01-17T04:43:57.869Z,99542.82
2019-01-17T04:46:27.222Z,99541.02
2019-01-17T04:48:58.158Z,99545.27
2019-01-17T04:51:27.494Z,99542.11
2019-01-17T04:53:56.828Z,99539.98
2019-01-17T04:56:26.146Z,99531.39
2019-01-17T04:58:55.502Z,99537.44
2019-01-17T05:01:24.810Z,99541.44
2019-01-17T05:03:54.152Z,99543.14
2019-01-17T05:06:23.475Z,99542.77
2019-01-17T05:08:52.814Z,99537.65
2019-01-17T05:11:23.747Z,99560.39
2019-01-17T05:13:53.083Z,99554.06
2019-01-17T05:16:22.404Z,99558.94
2019-01-17T05:19:31.815Z,99554.56
2019-01-17T05:22:01.138Z,99559.40
2019-01-17T05:24:49.613Z,99556.64
2019-01-17T05:27:19.261Z,99553.97
2019-01-17T05:29:48.644Z,99549.26
2019-01-17T05:32:18.018Z,99545.13
2019-01-17T05:34:47.657Z,99553.27
2019-01-17T05:37:16.990Z,99552.30
2019-01-17T05:39:47.926Z,99548.17
2019-01-17T05:42:17.265Z,99553.88
2019-01-17T05:44:46.586Z,99550.25
2019-01-17T05:47:15.918Z,99547.59
2019-01-17T05:49:45.073Z,99556.42
2019-01-17T05:52:14.389Z,99541.29
2019-01-17T05:54:43.705Z,99551.22
2019-01-17T05:57:13.047Z,99548.55
2019-01-17T05:59:42.384Z,99554.97
2019-01-17T06:05:13.569Z,99545.26
2019-01-17T06:07:42.922Z,99542.59
2019-01-17T06:16:10.105Z,99536.14
2019-01-17T06:18:39.508Z,99540.52
2019-01-17T06:21:08.841Z,99531.77
2019-01-17T06:23:38.410Z,99537.09
2019-01-17T06:26:09.446Z,99546.22
2019-01-17T06:28:38.773Z,99532.02
2019-01-17T06:31:08.099Z,99534.46
2019-01-17T06:33:37.433Z,99525.12
2019-01-17T06:36:06.775Z,99522.83
2019-01-17T06:38:36.347Z,99531.20
2019-01-17T06:41:05.669Z,99522.24
2019-01-17T06:43:35.013Z,99519.58
2019-01-17T06:46:04.422Z,99515.95
2019-01-17T06:48:33.750Z,99517.53
2019-01-17T06:51:03.086Z,99516.03
2019-01-17T06:53:32.427Z,99526.12
2019-01-17T06:56:01.767Z,99526.70
2019-01-17T06:58:31.128Z,99524.75
2019-01-17T07:01:00.474Z,99527.89
2019-01-17T07:03:29.971Z,99531.39
2019-01-17T07:05:59.299Z,99523.52
2019-01-17T07:08:28.628Z,99524.47
2019-01-17T07:10:57.977Z,99536.22
2019-01-17T07:13:27.297Z,99534.64
2019-01-17T07:15:56.631Z,99546.39
2019-01-17T07:18:25.967Z,99540.69
2019-01-17T07:20:55.304Z,99544.31
2019-01-17T07:23:24.647Z,99547.48
2019-01-17T07:25:54.217Z,99544.02
2019-01-17T07:28:23.554Z,99546.44
2019-01-17T07:30:53.135Z,99542.34
2019-01-17T07:33:22.474Z,99549.97
2019-01-17T07:35:51.795Z,99543.67
2019-01-17T07:38:21.148Z,99548.39
2019-01-17T07:40:50.494Z,99544.52
2019-01-17T07:43:19.818Z,99547.39
2019-01-17T07:45:49.164Z,99552.39
2019-01-17T07:48:18.488Z,99553.72
2019-01-17T07:50:47.823Z,99543.64
2019-01-17T07:53:17.158Z,99547.52
2019-01-17T07:55:47.642Z,99540.97
2019-01-17T07:58:36.624Z,99542.52
2019-01-17T08:01:25.074Z,99541.16
2019-01-17T08:03:54.460Z,99550.48
2019-01-17T08:06:23.780Z,99557.06
2019-01-17T08:08:53.394Z,99552.69
2019-01-17T08:11:22.716Z,99556.19
2019-01-17T08:13:52.063Z,99555.23
2019-01-17T08:16:21.393Z,99556.31
2019-01-17T08:18:52.353Z,99552.56
2019-01-17T08:21:21.685Z,99557.69
2019-01-17T08:23:51.021Z,99559.02
2019-01-17T08:26:39.466Z,99561.06
2019-01-17T08:29:08.872Z,99560.48
2019-01-17T08:31:38.199Z,99559.30
2019-01-17T08:34:07.543Z,99564.78
2019-01-17T08:36:36.869Z,99563.33
2019-01-17T08:39:46.263Z,99553.92
2019-01-17T08:42:15.592Z,99550.53
2019-01-17T08:44:44.920Z,99559.05
2019-01-17T08:47:14.246Z,99561.86
2019-01-17T08:49:43.588Z,99560.30
2019-01-17T08:52:12.915Z,99566.27
2019-01-17T08:54:42.569Z,99565.28
2019-01-17T08:57:12.691Z,99564.22
2019-01-17T08:59:42.029Z,99566.86
2019-01-17T09:02:12.123Z,99559.44
2019-01-17T09:04:41.449Z,99567.73
2019-01-17T09:07:10.791Z,99561.41
2019-01-17T09:09:40.121Z,99568.20
2019-01-17T09:12:09.463Z,99559.22
2019-01-17T09:14:38.789Z,99566.25
2019-01-17T09:17:08.121Z,99575.60
2019-01-17T09:19:37.460Z,99575.38
2019-01-17T09:22:06.801Z,99571.84
2019-01-17T09:24:36.127Z,99576.32
2019-01-17T09:27:05.476Z,99568.25
2019-01-17T09:29:35.144Z,99569.06
2019-01-17T09:32:04.735Z,99566.34
2019-01-17T09:34:34.364Z,99565.64
2019-01-17T09:37:03.714Z,99554.34
2019-01-17T09:39:33.035Z,99564.27
2019-01-17T09:42:02.414Z,99563.33
2019-01-17T09:44:31.781Z,99570.72
2019-01-17T09:47:01.389Z,99561.49
2019-01-17T09:49:30.731Z,99558.84
2019-01-17T09:52:00.057Z,99551.30
2019-01-17T09:54:29.394Z,99564.56
2019-01-17T09:56:58.720Z,99559.73
2019-01-17T09:59:28.078Z,99555.59
2019-01-17T10:01:57.704Z,99559.00
2019-01-17T10:04:27.064Z,99554.51
2019-01-17T10:06:56.389Z,99551.94
2019-01-17T10:09:25.725Z,99547.88
2019-01-17T10:11:55.059Z,99558.25
2019-01-17T10:14:24.407Z,99556.72
2019-01-17T10:20:52.860Z,99546.61
2019-01-17T10:30:06.666Z,99549.05
2019-01-17T10:36:16.847Z,99545.70
2019-01-17T10:39:26.226Z,99550.22
2019-01-17T10:46:08.140Z,99537.34
2019-01-17T10:49:16.213Z,99536.37
2019-01-17T10:52:24.257Z,99534.30
2019-01-17T10:55:32.325Z,99530.41
2019-01-17T10:58:40.363Z,99527.14
2019-01-17T11:05:10.592Z,99510.73
2019-01-17T11:11:20.141Z,99500.27
2019-01-17T11:14:29.507Z,99506.95
2019-01-17T11:20:39.961Z,99498.09
2019-01-17T11:23:49.323Z,99487.77
2019-01-17T11:26:57.372Z,99489.13
2019-01-17T11:30:06.773Z,99488.99
2019-01-17T11:33:14.873Z,99488.88
2019-01-17T11:36:24.316Z,99486.56
2019-01-17T11:39:14.904Z,99480.48
2019-01-17T11:42:23.062Z,99476.70
2019-01-17T11:45:31.104Z,99471.48
2019-01-17T11:48:40.484Z,99472.36
2019-01-17T11:54:50.654Z,99489.11
2019-01-17T11:57:58.717Z,99493.20
2019-01-17T12:04:41.109Z,99491.70
2019-01-17T12:10:12.800Z,99487.26
2019-01-17T12:15:22.682Z,99480.28
2019-01-17T12:21:01.139Z,99465.12
2019-01-17T12:23:30.461Z,99450.73
2019-01-17T12:28:55.210Z,99456.06
2019-01-17T12:31:24.563Z,99463.10
2019-01-17T12:33:53.894Z,99454.48
2019-01-17T12:36:23.211Z,99448.66
2019-01-17T12:38:52.778Z,99456.31
2019-01-17T12:41:22.106Z,99451.22
2019-01-17T12:43:51.682Z,99451.22
2019-01-17T12:46:21.021Z,99458.26
2019-01-17T12:48:50.579Z,99453.42
2019-01-17T12:51:39.522Z,99450.13
2019-01-17T12:54:09.112Z,99444.55
2019-01-17T12:56:38.443Z,99445.98
2019-01-17T12:59:07.775Z,99438.95
2019-01-17T13:01:37.091Z,99441.39
2019-01-17T13:04:06.497Z,99438.70
2019-01-17T13:09:38.762Z,99444.59
2019-01-17T13:12:08.090Z,99455.28
2019-01-17T13:14:37.424Z,99448.99
2019-01-17T13:17:06.746Z,99453.86
2019-01-17T13:22:38.078Z,99452.77
2019-01-17T13:28:09.410Z,99454.42
2019-01-17T13:30:40.375Z,99454.05
2019-01-17T13:33:09.694Z,99456.59
2019-01-17T13:35:39.022Z,99460.71
2019-01-17T13:38:08.356Z,99456.67
2019-01-17T13:40:37.754Z,99462.51
2019-01-17T13:43:07.105Z,99459.93
2019-01-17T13:45:36.425Z,99468.17
2019-01-17T13:48:05.878Z,99473.50
2019-01-17T13:50:35.212Z,99469.02
2019-01-17T13:56:38.968Z,99478.47
2019-01-17T13:59:08.302Z,99479.02
2019-01-17T14:01:39.238Z,99483.47
2019-01-17T14:04:08.572Z,99495.09
2019-01-17T14:06:37.893Z,99492.92
2019-01-17T14:09:47.352Z,99489.75
2019-01-17T14:12:17.440Z,99501.50
2019-01-17T14:14:46.774Z,99514.07
2019-01-17T14:17:16.097Z,99518.56
2019-01-17T14:19:45.462Z,99523.01
2019-01-17T14:22:14.859Z,99534.91
2019-01-17T14:24:44.187Z,99541.72
2019-01-17T14:27:14.162Z,99553.94
2019-01-17T14:33:05.994Z,99555.15
2019-01-17T14:35:35.326Z,99564.67
2019-01-17T14:38:04.715Z,99561.34
2019-01-17T14:40:34.046Z,99560.33
2019-01-17T14:43:03.366Z,99560.41
2019-01-17T14:45:32.710Z,99567.13
2019-01-17T14:48:02.073Z,99571.33
2019-01-17T14:53:33.216Z,99586.59
2019-01-17T14:56:02.553Z,99592.38
2019-01-17T14:58:31.876Z,99596.75
2019-01-17T15:01:01.205Z,99594.64
2019-01-17T15:03:43.108Z,99601.33
2019-01-17T15:06:12.440Z,99601.33
2019-01-17T15:09:01.103Z,99622.38
2019-01-17T15:11:30.443Z,99622.38
2019-01-17T15:14:19.105Z,99632.27
2019-01-17T15:16:48.441Z,99634.67
2019-01-17T15:19:20.125Z,99634.67
2019-01-17T15:21:49.699Z,99638.98
2019-01-17T15:24:19.016Z,99641.33
2019-01-17T15:26:50.516Z,99641.19
2019-01-17T15:29:19.841Z,99664.20
2019-01-17T15:31:49.174Z,99664.20
2019-01-17T15:34:18.488Z,99675.11
2019-01-17T15:36:47.854Z,99678.16
2019-01-17T15:39:17.174Z,99687.25
2019-01-17T15:41:46.521Z,99688.20
2019-01-17T15:44:15.843Z,99696.87
2019-01-17T15:46:57.325Z,99715.33
2019-01-17T15:49:38.672Z,99717.90
2019-01-17T15:52:20.560Z,99730.52
2019-01-17T15:54:49.888Z,99755.03
2019-01-17T15:57:19.222Z,99755.03
2019-01-17T15:59:48.546Z,99750.78
2019-01-17T16:02:38.648Z,99751.95
2019-01-17T16:05:20.406Z,99747.39
2019-01-17T16:07:50.041Z,99747.39
2019-01-17T16:10:19.363Z,99761.41
2019-01-17T16:12:48.697Z,99765.60
2019-01-17T16:18:21.985Z,99768.15
2019-01-17T16:21:03.625Z,99761.78
2019-01-17T16:23:32.954Z,99761.78
2019-01-17T16:26:02.304Z,99783.53
2019-01-17T16:28:46.085Z,99789.52
2019-01-17T16:31:28.973Z,99793.29
2019-01-17T16:33:58.298Z,99793.29
2019-01-17T16:36:29.672Z,99791.96
2019-01-17T16:39:11.982Z,99800.92
2019-01-17T16:41:41.682Z,99804.63
2019-01-17T16:44:12.940Z,99804.63
2019-01-17T16:46:42.274Z,99810.22
2019-01-17T16:49:30.934Z,99816.77
2019-01-17T16:52:00.533Z,99816.77
2019-01-17T16:54:49.194Z,99822.86
2019-01-17T16:57:18.862Z,99822.86
2019-01-17T17:03:28.756Z,99837.02
2019-01-17T17:05:58.087Z,99863.37
2019-01-17T17:08:27.411Z,99835.62
2019-01-17T17:10:56.751Z,99847.42
2019-01-17T17:13:45.406Z,99860.98
2019-01-17T17:16:14.742Z,99860.98
2019-01-17T17:18:44.063Z,99869.95
2019-01-17T17:21:13.396Z,99880.34
2019-01-17T17:23:42.715Z,99881.24
2019-01-17T17:26:24.136Z,99888.07
2019-01-17T17:28:53.460Z,99888.07
2019-01-17T17:31:23.612Z,99892.25
2019-01-17T17:33:52.911Z,99900.44
2019-01-17T17:36:22.249Z,99891.34
2019-01-17T17:38:53.425Z,99891.86
2019-01-17T17:41:42.101Z,99896.52
2019-01-17T17:44:11.425Z,99895.33
2019-01-17T17:47:00.104Z,99903.97
2019-01-17T17:49:29.427Z,99903.97
2019-01-17T17:51:58.830Z,99902.94
2019-01-17T17:54:28.146Z,99902.28
2019-01-17T17:56:57.512Z,99906.66
2019-01-17T17:59:39.010Z,99886.74
2019-01-17T18:07:48.614Z,99908.05
2019-01-17T18:10:18.014Z,99910.58
2019-01-17T18:13:05.953Z,99927.80
2019-01-17T18:15:35.323Z,99927.80
2019-01-17T18:18:23.912Z,99935.66
2019-01-17T18:20:53.301Z,99948.39
2019-01-17T18:23:42.398Z,99959.46
2019-01-17T18:26:15.929Z,99959.46
2019-01-17T18:28:45.587Z,99958.78
2019-01-17T18:31:27.382Z,99964.09
2019-01-17T18:33:56.698Z,99964.09
2019-01-17T18:36:27.644Z,99972.83
2019-01-17T18:38:57.287Z,99970.17
2019-01-17T18:41:46.197Z,99989.73
2019-01-17T18:44:15.520Z,99989.73
2019-01-17T18:46:44.851Z,99997.94
2019-01-17T18:49:14.169Z,100005.61
2019-01-17T18:51:43.514Z,100005.61
2019-01-17T18:54:12.836Z,100011.21
2019-01-17T18:56:42.179Z,100010.28
2019-01-17T18:59:11.575Z,100018.14
2019-01-17T19:01:40.914Z,100028.61
2019-01-17T19:04:11.854Z,100034.22
2019-01-17T19:07:00.532Z,100032.38
2019-01-17T19:09:29.855Z,100032.38
2019-01-17T19:11:59.431Z,100038.38
2019-01-17T19:14:28.755Z,100038.01
2019-01-17T19:16:58.095Z,100038.01
2019-01-17T19:19:29.036Z,100046.37
2019-01-17T19:21:58.666Z,100056.59
2019-01-17T19:24:27.951Z,100056.59
2019-01-17T19:26:57.285Z,100067.55
2019-01-17T19:29:26.608Z,100071.44
2019-01-17T19:31:55.947Z,100068.10
2019-01-17T19:37:21.093Z,100078.42
2019-01-17T19:39:50.410Z,100083.94
2019-01-17T19:42:39.085Z,100087.47
2019-01-17T19:45:48.466Z,100087.47
2019-01-17T19:48:17.818Z,100098.16
2019-01-17T19:50:47.125Z,100101.36
2019-01-17T19:53:16.463Z,100107.39
2019-01-17T19:55:45.786Z,100121.45
2019-01-17T19:58:15.126Z,100115.61
2019-01-17T20:00:44.450Z,100131.14
2019-01-17T20:03:14.390Z,100128.98
2019-01-17T20:05:43.717Z,100138.27
2019-01-17T20:08:13.055Z,100145.20
2019-01-17T20:10:42.383Z,100149.83
2019-01-17T20:13:11.793Z,100149.83
2019-01-17T20:15:41.118Z,100157.94
2019-01-17T20:18:12.076Z,100164.12
2019-01-17T20:20:41.409Z,100170.22
2019-01-17T20:23:10.752Z,100183.97
2019-01-17T20:25:40.078Z,100193.72
2019-01-17T20:28:21.864Z,100196.85
2019-01-17T20:30:51.187Z,100196.85
2019-01-17T20:33:40.207Z,100218.94
2019-01-17T20:36:09.530Z,100224.55
2019-01-17T20:38:58.213Z,100247.99
2019-01-17T20:41:39.874Z,100253.61
2019-01-17T20:44:09.218Z,100253.61
2019-01-17T20:46:38.546Z,100260.02
2019-01-17T20:49:20.469Z,100245.95
2019-01-17T20:52:02.447Z,100246.12
2019-01-17T20:54:31.860Z,100246.12
2019-01-17T20:57:01.182Z,100242.77
2019-01-17T20:59:30.525Z,100250.25
2019-01-17T21:02:19.205Z,100255.17
2019-01-17T21:04:48.531Z,100278.34
2019-01-17T21:07:17.872Z,100281.34
2019-01-17T21:09:47.192Z,100276.88
2019-01-17T21:12:16.529Z,100280.77
2019-01-17T21:14:45.919Z,100288.04
2019-01-17T21:17:36.639Z,100306.71
2019-01-17T21:20:47.640Z,100308.44
2019-01-17T21:23:16.984Z,100318.66
2019-01-17T21:25:46.305Z,100332.55
2019-01-17T21:28:54.092Z,100335.83
2019-01-17T21:31:23.422Z,100335.83
2019-01-17T21:33:53.039Z,100343.09
2019-01-17T21:36:23.983Z,100350.13
2019-01-17T21:39:33.334Z,100359.07
2019-01-17T21:42:02.659Z,100354.95
2019-01-17T21:44:32.929Z,100356.89
2019-01-17T21:47:02.261Z,100359.55
2019-01-17T21:49:31.595Z,100360.08
2019-01-17T21:52:00.919Z,100364.20
2019-01-17T21:54:30.254Z,100367.47
2019-01-17T21:56:59.579Z,100381.45
2019-01-17T21:59:28.923Z,100392.38
2019-01-17T22:01:58.243Z,100393.34
2019-01-17T22:04:27.581Z,100409.27
2019-01-17T22:06:56.902Z,100416.21
2019-01-17T22:09:33.945Z,100414.17
2019-01-17T22:12:03.287Z,100416.48
2019-01-17T22:14:32.859Z,100433.73
2019-01-17T22:17:04.055Z,100435.05
2019-01-17T22:19:33.395Z,100440.36
2019-01-17T22:22:02.955Z,100434.69
2019-01-17T22:24:32.298Z,100445.36
2019-01-17T22:27:01.668Z,100456.28
2019-01-17T22:29:31.007Z,100461.67
2019-01-17T22:32:00.325Z,100465.66
2019-01-17T22:34:29.666Z,100482.38
2019-01-17T22:36:59.250Z,100487.16
2019-01-17T22:39:40.549Z,100498.02
2019-01-17T22:42:09.874Z,100498.02
2019-01-17T22:44:39.278Z,100506.69
2019-01-17T22:47:08.609Z,100510.46
2019-01-17T22:49:38.188Z,100512.06
2019-01-17T22:52:07.511Z,100521.86
2019-01-17T22:54:36.853Z,100537.63
2019-01-17T22:57:06.174Z,100544.00
2019-01-17T22:59:35.508Z,100543.44
2019-01-17T23:02:06.535Z,100542.67
2019-01-17T23:04:35.871Z,100549.53
2019-01-17T23:07:05.585Z,100552.79
2019-01-17T23:09:35.172Z,100560.75
2019-01-17T23:12:04.560Z,100566.52
2019-01-17T23:14:46.079Z,100583.38
2019-01-17T23:17:15.397Z,100583.38
2019-01-17T23:19:44.743Z,100593.95
2019-01-17T23:22:14.066Z,100601.95
2019-01-17T23:24:43.846Z,100613.70
2019-01-17T23:27:13.295Z,100614.02
2019-01-17T23:29:42.644Z,100621.02
2019-01-17T23:32:24.515Z,100635.98
2019-01-17T23:34:53.862Z,100635.98
2019-01-17T23:41:15.017Z,100648.95
2019-01-17T23:44:01.429Z,100655.78
2019-01-17T23:46:32.505Z,100667.69
